createdAt,value
2023-02-26T00:00:50.081Z,82.91
2023-02-26T00:03:43.354Z,83.14
2023-02-26T00:06:12.309Z,82.90
2023-02-26T00:08:41.369Z,83.27
2023-02-26T00:11:11.438Z,83.50
2023-02-26T00:13:42.209Z,83.78
2023-02-26T00:16:19.544Z,83.66
2023-02-26T00:18:49.446Z,83.44
2023-02-26T00:21:20.726Z,83.54
2023-02-26T00:23:51.900Z,82.91
2023-02-26T00:26:22.078Z,82.03
2023-02-26T00:28:51.035Z,81.96
2023-02-26T00:31:29.324Z,81.91
2023-02-26T00:34:03.502Z,82.18
2023-02-26T00:36:38.140Z,82.41
2023-02-26T00:39:37.039Z,83.16
2023-02-26T00:42:08.647Z,84.53
2023-02-26T00:44:40.559Z,85.47
2023-02-26T00:47:22.009Z,84.82
2023-02-26T00:50:03.344Z,85.71
2023-02-26T00:52:57.730Z,86.41
2023-02-26T00:55:32.295Z,86.65
2023-02-26T00:58:10.987Z,86.91
2023-02-26T01:00:45.528Z,85.77
2023-02-26T01:03:17.766Z,85.90
2023-02-26T01:05:51.554Z,86.99
2023-02-26T01:08:29.313Z,87.85
2023-02-26T01:10:58.179Z,87.64
2023-02-26T01:13:29.708Z,87.64
2023-02-26T01:16:16.634Z,88.17
2023-02-26T01:18:54.008Z,89.07
2023-02-26T01:21:36.416Z,89.24
2023-02-26T01:24:09.072Z,89.97
2023-02-26T01:26:40.674Z,89.85
2023-02-26T01:29:12.026Z,88.79
2023-02-26T01:32:17.036Z,88.89
2023-02-26T01:34:54.338Z,88.24
2023-02-26T01:37:32.125Z,87.46
2023-02-26T01:40:39.321Z,87.87
2023-02-26T01:43:13.076Z,88.93
2023-02-26T01:46:07.240Z,89.69
2023-02-26T01:48:52.358Z,88.90
2023-02-26T01:51:46.801Z,88.42
2023-02-26T01:54:24.350Z,88.75
2023-02-26T01:57:05.290Z,89.82
2023-02-26T01:59:39.497Z,90.40
2023-02-26T02:02:10.386Z,90.50
2023-02-26T02:04:40.902Z,91.28
2023-02-26T02:07:09.458Z,91.33
2023-02-26T02:09:39.054Z,91.41
2023-02-26T02:12:21.517Z,91.14
2023-02-26T02:14:59.036Z,91.07
2023-02-26T02:17:41.768Z,91.47
2023-02-26T02:20:25.417Z,91.90
2023-02-26T02:23:11.161Z,92.00
2023-02-26T02:26:02.407Z,91.83
2023-02-26T02:28:42.103Z,91.61
2023-02-26T02:31:35.128Z,91.10
2023-02-26T02:34:22.304Z,92.90
2023-02-26T02:37:17.629Z,93.54
2023-02-26T02:40:11.816Z,93.52
2023-02-26T02:43:04.272Z,93.09
2023-02-26T02:45:49.200Z,92.39
2023-02-26T02:48:26.953Z,92.04
2023-02-26T02:51:06.878Z,92.39
2023-02-26T02:53:55.240Z,92.39
2023-02-26T02:56:32.222Z,92.58
2023-02-26T02:59:19.553Z,93.19
2023-02-26T03:02:13.208Z,93.17
2023-02-26T03:04:46.279Z,93.03
2023-02-26T03:07:18.183Z,93.30
2023-02-26T03:09:55.293Z,93.55
2023-02-26T03:12:37.904Z,92.97
2023-02-26T03:15:12.050Z,92.14
2023-02-26T03:17:46.848Z,91.95
2023-02-26T03:20:30.237Z,92.00
2023-02-26T03:23:18.087Z,93.02
2023-02-26T03:26:05.451Z,94.18
2023-02-26T03:29:04.552Z,94.25
2023-02-26T03:31:40.696Z,94.00
2023-02-26T03:34:27.765Z,93.72
2023-02-26T03:37:15.206Z,94.02
2023-02-26T03:39:55.536Z,93.37
2023-02-26T03:42:36.811Z,93.31
2023-02-26T03:45:12.295Z,93.55
2023-02-26T03:47:44.321Z,93.03
2023-02-26T03:50:21.941Z,92.83
2023-02-26T03:53:10.407Z,92.39
2023-02-26T03:56:01.072Z,91.88
2023-02-26T03:58:58.768Z,92.61
2023-02-26T04:01:49.012Z,92.46
2023-02-26T04:04:25.142Z,91.78
2023-02-26T04:06:56.917Z,92.24
2023-02-26T04:09:28.487Z,92.57
2023-02-26T04:12:00.309Z,93.47
2023-02-26T04:14:28.945Z,93.63
2023-02-26T04:17:01.443Z,93.66
2023-02-26T04:19:37.654Z,93.44
2023-02-26T04:22:10.814Z,93.07
2023-02-26T04:24:45.418Z,92.94
2023-02-26T04:27:19.166Z,92.31
2023-02-26T04:29:58.091Z,92.49
2023-02-26T04:32:26.665Z,92.98
2023-02-26T04:35:00.586Z,93.43
2023-02-26T04:37:29.358Z,93.86
2023-02-26T04:40:00.958Z,94.15
2023-02-26T04:42:29.516Z,94.01
2023-02-26T04:44:58.078Z,93.90
2023-02-26T04:47:29.931Z,93.91
2023-02-26T04:49:58.555Z,94.57
2023-02-26T04:52:32.551Z,94.37
2023-02-26T04:55:04.485Z,94.20
2023-02-26T04:57:40.834Z,93.97
2023-02-26T05:00:10.011Z,93.64
2023-02-26T05:02:41.082Z,94.06
2023-02-26T05:05:10.151Z,94.26
2023-02-26T05:07:42.064Z,94.93
2023-02-26T05:10:16.035Z,94.51
2023-02-26T05:12:44.598Z,94.13
2023-02-26T05:15:13.324Z,94.40
2023-02-26T05:17:46.358Z,94.57
2023-02-26T05:20:18.359Z,94.78
2023-02-26T05:22:53.715Z,95.16
2023-02-26T05:25:28.064Z,95.63
2023-02-26T05:28:02.197Z,95.30
2023-02-26T05:30:35.785Z,95.95
2023-02-26T05:33:07.572Z,95.86
2023-02-26T05:35:36.142Z,95.74
2023-02-26T05:38:09.772Z,95.67
2023-02-26T05:40:41.561Z,95.43
2023-02-26T05:43:16.239Z,95.68
2023-02-26T05:45:50.661Z,96.28
2023-02-26T05:48:19.304Z,96.55
2023-02-26T05:50:49.716Z,96.55
2023-02-26T05:53:23.570Z,96.46
2023-02-26T05:55:59.828Z,96.21
2023-02-26T05:58:31.530Z,96.94
2023-02-26T06:01:03.364Z,97.25
2023-02-26T06:03:31.974Z,97.00
2023-02-26T06:06:03.941Z,96.53
2023-02-26T06:08:42.754Z,96.33
2023-02-26T06:11:17.818Z,96.51
2023-02-26T06:13:50.024Z,96.56
2023-02-26T06:16:21.471Z,96.75
2023-02-26T06:18:50.591Z,96.96
2023-02-26T06:21:19.459Z,96.92
2023-02-26T06:23:48.109Z,96.88
2023-02-26T06:26:16.680Z,96.89
2023-02-26T06:28:45.457Z,96.85
2023-02-26T06:31:14.105Z,97.09
2023-02-26T06:33:42.632Z,96.76
2023-02-26T06:36:11.203Z,96.94
2023-02-26T06:38:42.535Z,96.99
2023-02-26T06:41:11.672Z,97.08
2023-02-26T06:43:40.544Z,96.83
2023-02-26T06:46:09.659Z,96.75
2023-02-26T06:48:38.313Z,96.82
2023-02-26T06:51:07.653Z,97.10
2023-02-26T06:53:36.271Z,97.18
2023-02-26T06:56:05.740Z,97.09
2023-02-26T06:58:34.587Z,97.08
2023-02-26T07:01:05.437Z,96.57
2023-02-26T07:03:34.031Z,96.48
2023-02-26T07:06:23.652Z,96.51
2023-02-26T07:08:51.386Z,96.74
2023-02-26T07:11:20.165Z,96.94
2023-02-26T07:13:48.986Z,96.63
2023-02-26T07:16:17.821Z,96.41
2023-02-26T07:18:46.395Z,96.43
2023-02-26T07:21:20.401Z,96.43
2023-02-26T07:23:51.526Z,96.67
2023-02-26T07:26:22.556Z,96.58
2023-02-26T07:28:51.116Z,96.48
2023-02-26T07:31:20.218Z,96.38
2023-02-26T07:33:48.920Z,96.53
2023-02-26T07:36:17.403Z,97.12
2023-02-26T07:38:48.885Z,97.03
2023-02-26T07:41:17.488Z,96.73
2023-02-26T07:43:46.806Z,96.44
2023-02-26T07:46:15.544Z,96.47
2023-02-26T07:48:44.136Z,96.49
2023-02-26T07:51:18.552Z,96.06
2023-02-26T07:53:47.310Z,96.11
2023-02-26T07:56:18.988Z,96.25
2023-02-26T07:58:47.590Z,96.48
2023-02-26T08:01:16.650Z,96.01
2023-02-26T08:03:50.232Z,96.03
2023-02-26T08:06:18.906Z,95.84
2023-02-26T08:08:50.284Z,95.82
2023-02-26T08:11:18.866Z,95.87
2023-02-26T08:13:47.370Z,95.79
2023-02-26T08:16:16.157Z,95.60
2023-02-26T08:18:45.295Z,95.43
2023-02-26T08:21:13.895Z,95.23
2023-02-26T08:23:42.529Z,95.19
2023-02-26T08:26:13.654Z,95.67
2023-02-26T08:28:46.603Z,95.40
2023-02-26T08:31:15.959Z,95.26
2023-02-26T08:33:49.375Z,95.08
2023-02-26T08:36:22.112Z,95.15
2023-02-26T08:38:54.029Z,95.07
2023-02-26T08:41:23.629Z,94.93
2023-02-26T08:43:52.385Z,94.75
2023-02-26T08:46:21.062Z,94.56
2023-02-26T08:48:49.758Z,94.50
2023-02-26T08:51:19.217Z,94.95
2023-02-26T08:53:50.492Z,94.71
2023-02-26T08:56:23.213Z,94.38
2023-02-26T08:58:57.510Z,94.01
2023-02-26T09:01:26.458Z,93.66
2023-02-26T09:03:58.404Z,93.47
2023-02-26T09:06:32.055Z,93.58
2023-02-26T09:09:04.307Z,93.56
2023-02-26T09:11:36.947Z,92.88
2023-02-26T09:14:14.757Z,92.78
2023-02-26T09:16:43.797Z,93.00
2023-02-26T09:19:13.026Z,93.02
2023-02-26T09:21:41.674Z,92.84
2023-02-26T09:24:10.472Z,92.48
2023-02-26T09:26:42.034Z,92.94
2023-02-26T09:29:14.643Z,92.43
2023-02-26T09:31:43.764Z,92.28
2023-02-26T09:34:13.979Z,92.42
2023-02-26T09:36:44.159Z,92.56
2023-02-26T09:39:13.409Z,92.53
2023-02-26T09:41:46.549Z,92.33
2023-02-26T09:44:24.973Z,92.68
2023-02-26T09:47:16.030Z,92.74
2023-02-26T09:50:06.253Z,92.38
2023-02-26T09:52:52.607Z,92.77
2023-02-26T09:55:29.728Z,92.84
2023-02-26T09:58:05.532Z,92.75
2023-02-26T10:00:52.577Z,93.22
2023-02-26T10:04:17.770Z,93.46
2023-02-26T10:07:08.712Z,93.43
2023-02-26T10:10:05.480Z,93.28
2023-02-26T10:12:36.739Z,92.91
2023-02-26T10:15:26.423Z,92.60
2023-02-26T10:18:03.176Z,92.59
2023-02-26T10:20:39.983Z,93.04
2023-02-26T10:23:43.895Z,92.61
2023-02-26T10:26:15.088Z,91.83
2023-02-26T10:28:50.580Z,91.27
2023-02-26T10:31:35.179Z,91.29
2023-02-26T10:34:31.278Z,91.50
2023-02-26T10:37:21.454Z,92.58
2023-02-26T10:40:22.457Z,92.77
2023-02-26T10:43:03.089Z,92.59
2023-02-26T10:45:59.372Z,92.56
2023-02-26T10:48:34.874Z,92.32
2023-02-26T10:51:14.826Z,91.98
2023-02-26T10:53:49.663Z,92.03
2023-02-26T10:56:24.450Z,92.18
2023-02-26T10:58:55.182Z,92.53
2023-02-26T11:01:26.408Z,92.81
2023-02-26T11:04:01.318Z,92.87
2023-02-26T11:06:47.276Z,92.81
2023-02-26T11:09:29.328Z,93.20
2023-02-26T11:12:18.164Z,92.54
2023-02-26T11:14:49.021Z,91.65
2023-02-26T11:17:22.416Z,92.60
2023-02-26T11:19:59.673Z,92.81
2023-02-26T11:22:34.114Z,92.71
2023-02-26T11:25:04.721Z,92.97
2023-02-26T11:27:38.076Z,92.85
2023-02-26T11:30:19.472Z,92.72
2023-02-26T11:32:53.190Z,92.78
2023-02-26T11:35:26.777Z,93.08
2023-02-26T11:38:03.980Z,93.35
2023-02-26T11:40:40.670Z,93.76
2023-02-26T11:43:15.445Z,93.32
2023-02-26T11:45:48.330Z,93.38
2023-02-26T11:48:27.126Z,92.88
2023-02-26T11:51:00.929Z,92.63
2023-02-26T11:53:36.862Z,93.28
2023-02-26T11:56:20.488Z,93.35
2023-02-26T11:58:55.526Z,93.14
2023-02-26T12:01:29.533Z,93.02
2023-02-26T12:04:02.028Z,92.80
2023-02-26T12:06:31.732Z,93.01
2023-02-26T12:09:00.394Z,93.88
2023-02-26T12:12:00.221Z,93.70
2023-02-26T12:14:34.707Z,93.74
2023-02-26T12:17:22.207Z,93.41
2023-02-26T12:20:15.649Z,92.95
2023-02-26T12:22:58.516Z,92.89
2023-02-26T12:26:01.418Z,93.17
2023-02-26T12:28:44.099Z,93.12
2023-02-26T12:31:36.814Z,93.43
2023-02-26T12:34:22.329Z,94.25
2023-02-26T12:37:23.316Z,94.31
2023-02-26T12:40:09.373Z,94.38
2023-02-26T12:42:44.166Z,93.92
2023-02-26T12:45:29.073Z,93.61
2023-02-26T12:48:17.568Z,93.97
2023-02-26T12:51:20.432Z,94.38
2023-02-26T12:54:25.722Z,94.16
2023-02-26T12:57:10.040Z,93.75
2023-02-26T13:00:13.142Z,94.03
2023-02-26T13:02:44.802Z,94.14
2023-02-26T13:05:30.285Z,94.03
2023-02-26T13:08:17.939Z,94.00
2023-02-26T13:11:08.991Z,93.77
2023-02-26T13:14:03.278Z,93.50
2023-02-26T13:16:59.679Z,93.59
2023-02-26T13:19:28.154Z,93.39
2023-02-26T13:22:01.274Z,93.11
2023-02-26T13:24:45.591Z,92.34
2023-02-26T13:27:17.005Z,92.67
2023-02-26T13:29:56.566Z,92.94
2023-02-26T13:32:29.498Z,93.84
2023-02-26T13:35:26.388Z,94.28
2023-02-26T13:38:03.349Z,94.47
2023-02-26T13:40:54.321Z,95.16
2023-02-26T13:43:44.711Z,94.84
2023-02-26T13:46:50.826Z,95.19
2023-02-26T13:49:23.836Z,95.73
2023-02-26T13:51:55.144Z,96.18
2023-02-26T13:54:34.517Z,96.21
